ESDF/RNB METAR and TAF weather

Enter ICAO airport designator
Station Type Date Time Source
ESDF METAR 2022/07/01 01:50 UTC NOAA

ESDF 010150Z AUTO 00000KT 9999 OVC042/// 18/16 Q1013


Station Type Date Time Source
ESDF Decoded METAR 2022/07/01 01:50 UTC NOAA

Ronneby, Sweden (ESDF) 56-16N 015-17E 74M
Jun 30, 2022 - 09:50 PM EDT / 2022.07.01 0150 UTC
Wind: Calm:0
Visibility: greater than 7 mile(s):0
Sky conditions: overcast
Temperature: 64 F (18 C)
Dew Point: 60 F (16 C)
Relative Humidity: 88%
Pressure (altimeter): 29.91 in. Hg (1013 hPa)
ob: ESDF 010150Z AUTO 00000KT 9999 OVC042/// 18/16 Q1013
cycle: 2

Station Type Date Time Source
ESDF TAF 2018/05/29 12:27 UTC NOAA

TAF TAF ESDF 291425Z 2912/2924 07008KT CAVOK
RMK MIL

Example: see airport list